Time;durP1;ratioP1;P1;durP2;ratioP2;P2;SDS_P1;SDS_P2;PMS_P1;PMS_P2;Temp;Humidity;BMP_temperature;BMP_pressure;BME280_temperature;BME280_humidity;BME280_pressure;Samples;Min_cycle;Max_cycle;Signal;HPM_P1;HPM_P2
2023/08/18 00:00:28;;;;;;;17.52;13.48;;;;;19.20;94260.00;;;;7396423;19;20148;-74
2023/08/18 00:03:03;;;;;;;15.60;13.32;;;;;19.20;94256.00;;;;7398045;19;20133;-74
2023/08/18 00:05:38;;;;;;;16.05;11.90;;;;;19.10;94246.00;;;;7397507;19;20173;-73
2023/08/18 00:08:18;;;;;;;17.27;11.70;;;;;18.90;94255.00;;;;7397434;19;20174;-73
2023/08/18 00:10:53;;;;;;;15.60;11.70;;;;;18.90;94251.00;;;;7397557;19;20212;-73
2023/08/18 00:13:21;;;;;;;16.55;10.25;;;;;18.80;94246.00;;;;7399210;19;20487;-74
2023/08/18 00:15:55;;;;;;;11.32;9.32;;;;;18.70;94245.00;;;;7398595;19;20143;-74
2023/08/18 00:18:30;;;;;;;12.45;9.27;;;;;18.50;94241.00;;;;7397237;19;20152;-74
2023/08/18 00:21:04;;;;;;;13.50;8.55;;;;;18.50;94241.00;;;;7398898;19;20144;-73
2023/08/18 00:23:32;;;;;;;17.58;8.55;;;;;18.30;94234.00;;;;7396582;19;20137;-73
2023/08/18 00:26:08;;;;;;;11.73;7.43;;;;;18.20;94236.00;;;;7395509;19;20137;-75
2023/08/18 00:28:43;;;;;;;11.45;7.90;;;;;18.10;94233.00;;;;7396597;19;20144;-73
2023/08/18 00:31:17;;;;;;;15.10;7.72;;;;;18.20;94230.00;;;;7392759;19;20511;-73
2023/08/18 00:33:46;;;;;;;8.15;7.28;;;;;18.30;94233.00;;;;7398462;19;20133;-73
2023/08/18 00:36:21;;;;;;;8.88;6.68;;;;;18.30;94226.00;;;;7397396;19;20132;-73
2023/08/18 00:38:50;;;;;;;7.10;6.40;;;;;18.20;94229.00;;;;7397637;19;20140;-73
2023/08/18 00:41:28;;;;;;;8.65;6.00;;;;;18.20;94230.00;;;;7396370;19;20149;-73
2023/08/18 00:43:56;;;;;;;6.88;5.45;;;;;18.20;94225.00;;;;7397839;19;20156;-75
2023/08/18 00:46:31;;;;;;;10.63;5.55;;;;;18.30;94222.00;;;;7398043;19;20163;-75
2023/08/18 00:49:01;;;;;;;7.68;6.10;;;;;18.30;94225.00;;;;7397236;19;20657;-75
2023/08/18 00:51:40;;;;;;;7.97;5.72;;;;;18.30;94223.00;;;;7398539;19;20145;-75
2023/08/18 00:54:08;;;;;;;7.05;4.88;;;;;18.20;94230.00;;;;7396612;19;20628;-73
2023/08/18 00:56:45;;;;;;;10.48;4.93;;;;;18.10;94222.00;;;;7395469;19;20155;-75
2023/08/18 00:59:14;;;;;;;8.40;5.13;;;;;18.20;94222.00;;;;7397629;19;20136;-73
2023/08/18 01:01:49;;;;;;;8.15;4.72;;;;;18.20;94226.00;;;;7394042;19;20137;-80
2023/08/18 01:04:30;;;;;;;7.65;4.78;;;;;18.20;94217.00;;;;7392963;19;20170;-75
2023/08/18 01:07:05;;;;;;;6.68;4.30;;;;;18.30;94220.00;;;;7397161;19;20244;-75
2023/08/18 01:09:40;;;;;;;5.65;4.68;;;;;18.40;94218.00;;;;7394860;19;20162;-76
2023/08/18 01:12:45;;;;;;;7.20;4.78;;;;;18.40;94218.00;;;;7395456;19;20177;-74
2023/08/18 01:15:45;;;;;;;8.20;4.28;;;;;18.10;94208.00;;;;7395830;19;20148;-75
2023/08/18 01:18:13;;;;;;;6.00;4.32;;;;;18.20;94212.00;;;;7395666;19;20153;-75
2023/08/18 01:20:50;;;;;;;8.30;4.70;;;;;18.10;94202.00;;;;7396888;19;20153;-75
2023/08/18 01:23:39;;;;;;;5.65;4.47;;;;;18.20;94203.00;;;;7396546;19;20192;-73
2023/08/18 01:26:07;;;;;;;4.80;3.88;;;;;18.10;94196.00;;;;7395269;19;20251;-74
2023/08/18 01:28:43;;;;;;;7.72;4.45;;;;;18.20;94201.00;;;;7396560;19;20136;-76
2023/08/18 01:31:28;;;;;;;10.27;4.38;;;;;18.30;94192.00;;;;7391909;19;20136;-73
2023/08/18 01:34:09;;;;;;;4.88;3.67;;;;;18.20;94192.00;;;;7394573;19;20136;-75
2023/08/18 01:36:41;;;;;;;7.45;3.50;;;;;18.30;94193.00;;;;7395436;19;20163;-75
2023/08/18 01:39:18;;;;;;;7.30;3.55;;;;;18.20;94195.00;;;;7396868;19;20156;-75
2023/08/18 01:41:46;;;;;;;8.30;3.72;;;;;18.10;94189.00;;;;7395974;19;20640;-73
2023/08/18 01:44:21;;;;;;;7.70;4.13;;;;;18.10;94196.00;;;;7395216;19;20136;-75
2023/08/18 01:46:48;;;;;;;8.55;3.88;;;;;18.00;94197.00;;;;7396350;19;20666;-75
2023/08/18 01:49:23;;;;;;;5.50;3.67;;;;;17.80;94197.00;;;;7395037;19;20144;-74
2023/08/18 01:51:57;;;;;;;7.13;3.38;;;;;17.80;94195.00;;;;7394871;19;20196;-75
2023/08/18 01:54:25;;;;;;;4.63;3.38;;;;;17.80;94191.00;;;;7395653;19;20149;-77
2023/08/18 01:57:00;;;;;;;8.00;3.80;;;;;18.00;94203.00;;;;7397996;19;20136;-74
2023/08/18 01:59:28;;;;;;;9.98;3.20;;;;;18.10;94189.00;;;;7394966;19;20148;-74
2023/08/18 02:02:15;;;;;;;10.43;3.70;;;;;18.10;94186.00;;;;7395345;19;20218;-75
2023/08/18 02:04:50;;;;;;;3.55;3.10;;;;;17.90;94189.00;;;;7397932;19;20622;-74
2023/08/18 02:07:25;;;;;;;9.05;3.30;;;;;17.70;94186.00;;;;7395803;19;20608;-74
2023/08/18 02:09:53;;;;;;;15.55;3.88;;;;;17.60;94190.00;;;;7394412;19;20133;-75
2023/08/18 02:12:28;;;;;;;4.18;3.25;;;;;17.60;94190.00;;;;7395433;19;20144;-75
2023/08/18 02:15:02;;;;;;;6.18;3.28;;;;;17.40;94187.00;;;;7394241;19;20143;-75
2023/08/18 02:17:36;;;;;;;3.65;2.80;;;;;17.60;94184.00;;;;7395899;19;20141;-77
2023/08/18 02:20:10;;;;;;;7.90;3.10;;;;;17.50;94183.00;;;;7397474;19;20595;-74
2023/08/18 02:22:45;;;;;;;6.07;3.13;;;;;17.50;94180.00;;;;7394289;19;20212;-76
2023/08/18 02:25:13;;;;;;;5.38;3.00;;;;;17.30;94185.00;;;;7394169;19;20175;-76
2023/08/18 02:27:47;;;;;;;6.85;2.80;;;;;17.30;94183.00;;;;7395205;19;20148;-76
2023/08/18 02:30:16;;;;;;;9.15;3.30;;;;;17.20;94183.00;;;;7391937;19;20165;-77
2023/08/18 02:32:51;;;;;;;5.97;2.67;;;;;17.00;94182.00;;;;7395747;19;20595;-76
2023/08/18 02:35:19;;;;;;;4.30;2.70;;;;;16.90;94176.00;;;;7394323;19;20181;-77
2023/08/18 02:37:54;;;;;;;9.63;3.15;;;;;17.00;94167.00;;;;7395860;19;20615;-76
2023/08/18 02:40:28;;;;;;;4.03;2.85;;;;;17.10;94173.00;;;;7393075;19;20144;-75
2023/08/18 02:43:02;;;;;;;9.07;3.28;;;;;17.00;94173.00;;;;7394838;19;20599;-75
2023/08/18 02:45:36;;;;;;;7.75;2.92;;;;;16.90;94165.00;;;;7393427;19;20152;-77
2023/08/18 02:48:15;;;;;;;6.53;3.10;;;;;16.80;94171.00;;;;7393962;19;20144;-74
2023/08/18 02:50:42;;;;;;;5.57;3.13;;;;;16.90;94169.00;;;;7397421;19;20603;-74
2023/08/18 02:53:16;;;;;;;9.13;3.40;;;;;16.90;94169.00;;;;7402745;19;20133;-74
2023/08/18 02:55:44;;;;;;;5.70;2.63;;;;;16.50;94173.00;;;;7401985;19;20156;-74
2023/08/18 02:58:18;;;;;;;3.65;2.80;;;;;16.30;94181.00;;;;7402785;19;20148;-75
2023/08/18 03:00:52;;;;;;;3.72;2.90;;;;;16.30;94173.00;;;;7401305;19;20160;-76
2023/08/18 03:03:33;;;;;;;4.82;2.70;;;;;16.40;94168.00;;;;7399002;19;20172;-76
2023/08/18 03:06:08;;;;;;;3.97;2.97;;;;;16.50;94167.00;;;;7401165;19;20846;-76
2023/08/18 03:08:43;;;;;;;5.90;2.85;;;;;16.70;94163.00;;;;7401263;19;20153;-75
2023/08/18 03:11:17;;;;;;;4.07;2.83;;;;;17.10;94167.00;;;;7399938;19;20148;-74
2023/08/18 03:13:51;;;;;;;3.85;2.70;;;;;17.30;94163.00;;;;7402431;19;20157;-74
2023/08/18 03:16:19;;;;;;;4.70;2.78;;;;;17.50;94165.00;;;;7400241;19;20141;-75
2023/08/18 03:18:54;;;;;;;5.20;2.53;;;;;17.60;94161.00;;;;7399734;19;20460;-74
2023/08/18 03:21:22;;;;;;;3.25;2.00;;;;;17.80;94161.00;;;;7402427;19;20153;-78
2023/08/18 03:23:56;;;;;;;5.80;2.30;;;;;18.00;94155.00;;;;7401432;19;20614;-79
2023/08/18 03:26:24;;;;;;;3.92;2.30;;;;;18.10;94156.00;;;;7401456;19;20143;-76
2023/08/18 03:28:58;;;;;;;5.47;2.50;;;;;18.20;94155.00;;;;7400809;19;20144;-78
2023/08/18 03:31:26;;;;;;;2.85;2.55;;;;;18.30;94154.00;;;;7399488;19;20133;-79
2023/08/18 03:34:00;;;;;;;3.08;2.20;;;;;18.60;94150.00;;;;7400184;19;20195;-79
2023/08/18 03:36:34;;;;;;;6.13;2.38;;;;;18.60;94147.00;;;;7400472;19;20145;-80
2023/08/18 03:39:08;;;;;;;6.72;2.50;;;;;18.70;94144.00;;;;7399499;19;20623;-78
2023/08/18 03:41:37;;;;;;;5.10;2.30;;;;;18.70;94150.00;;;;7399640;19;20145;-79
2023/08/18 03:44:12;;;;;;;6.45;2.60;;;;;18.70;94142.00;;;;7401211;19;20129;-80
2023/08/18 03:46:46;;;;;;;4.00;2.15;;;;;18.70;94150.00;;;;7399368;19;20204;-78
2023/08/18 03:49:20;;;;;;;3.00;2.08;;;;;18.60;94149.00;;;;7398328;19;20148;-79
2023/08/18 03:51:54;;;;;;;2.88;2.20;;;;;18.60;94143.00;;;;7400212;19;20151;-79
2023/08/18 03:54:28;;;;;;;4.38;2.08;;;;;18.50;94145.00;;;;7399034;19;20161;-79
2023/08/18 03:57:02;;;;;;;4.22;2.28;;;;;18.40;94152.00;;;;7399208;19;20204;-78
2023/08/18 03:59:37;;;;;;;5.97;2.58;;;;;18.40;94153.00;;;;7399270;19;20121;-76
2023/08/18 04:02:18;;;;;;;2.40;2.20;;;;;18.30;94156.00;;;;7398089;19;20459;-78
2023/08/18 04:05:00;;;;;;;2.88;2.25;;;;;18.40;94157.00;;;;7399564;19;20580;-78
2023/08/18 04:07:36;;;;;;;4.60;2.42;;;;;18.30;94160.00;;;;7398451;19;20174;-78
2023/08/18 04:10:10;;;;;;;3.05;2.10;;;;;18.30;94157.00;;;;7397147;19;20141;-79
2023/08/18 04:12:40;;;;;;;2.83;2.00;;;;;18.30;94158.00;;;;7397733;19;20883;-78
2023/08/18 04:15:15;;;;;;;7.50;2.25;;;;;18.40;94156.00;;;;7398520;19;20168;-79
2023/08/18 04:17:42;;;;;;;2.67;2.10;;;;;18.40;94149.00;;;;7398332;19;20140;-80
2023/08/18 04:20:17;;;;;;;3.28;2.00;;;;;18.40;94157.00;;;;7397329;19;20140;-76
2023/08/18 04:22:51;;;;;;;9.18;2.53;;;;;18.30;94165.00;;;;7398868;19;20137;-80
2023/08/18 04:25:25;;;;;;;2.40;2.00;;;;;18.30;94165.00;;;;7399875;19;20233;-78
2023/08/18 04:27:59;;;;;;;2.95;2.30;;;;;18.40;94163.00;;;;7397658;19;20141;-77
2023/08/18 04:30:35;;;;;;;3.47;2.13;;;;;18.40;94169.00;;;;7399149;19;20216;-78
2023/08/18 04:33:03;;;;;;;3.95;2.35;;;;;18.40;94165.00;;;;7396352;19;20136;-78
2023/08/18 04:35:39;;;;;;;2.95;2.30;;;;;18.40;94165.00;;;;7396439;19;20164;-78
2023/08/18 04:38:13;;;;;;;4.13;2.30;;;;;18.30;94167.00;;;;7397444;19;20184;-79
2023/08/18 04:40:58;;;;;;;2.30;2.10;;;;;18.30;94168.00;;;;7397714;19;20168;-76
2023/08/18 04:43:33;;;;;;;3.30;2.17;;;;;18.40;94170.00;;;;7397300;19;20157;-79
2023/08/18 04:46:08;;;;;;;2.28;2.03;;;;;18.50;94165.00;;;;7398172;19;20485;-79
2023/08/18 04:48:42;;;;;;;2.00;1.80;;;;;18.50;94178.00;;;;7397636;19;20595;-77
2023/08/18 04:51:16;;;;;;;3.53;2.50;;;;;18.60;94173.00;;;;7395184;19;20151;-76
2023/08/18 04:53:45;;;;;;;3.08;2.38;;;;;18.60;94170.00;;;;7396089;19;20493;-75
2023/08/18 04:56:15;;;;;;;3.17;2.20;;;;;18.50;94170.00;;;;7398523;19;20208;-77
2023/08/18 04:58:49;;;;;;;6.65;2.60;;;;;18.50;94181.00;;;;7396991;19;20136;-77
2023/08/18 05:01:23;;;;;;;4.18;2.15;;;;;18.50;94167.00;;;;7397161;19;20492;-77
2023/08/18 05:04:05;;;;;;;5.47;2.40;;;;;18.60;94173.00;;;;7394924;19;20175;-76
2023/08/18 05:06:33;;;;;;;4.70;2.60;;;;;18.80;94166.00;;;;7397251;19;20674;-76
2023/08/18 05:09:19;;;;;;;7.10;2.25;;;;;18.70;94177.00;;;;7396116;19;20183;-76
2023/08/18 05:11:48;;;;;;;4.78;2.28;;;;;18.70;94170.00;;;;7395128;19;20624;-77
2023/08/18 05:14:23;;;;;;;3.95;1.98;;;;;18.60;94164.00;;;;7399198;19;20136;-76
2023/08/18 05:16:50;;;;;;;4.40;2.10;;;;;18.70;94167.00;;;;7396188;19;20145;-77
2023/08/18 05:19:25;;;;;;;4.53;2.30;;;;;18.70;94168.00;;;;7396380;19;20692;-78
2023/08/18 05:21:53;;;;;;;3.75;2.28;;;;;18.80;94170.00;;;;7397154;19;20156;-80
2023/08/18 05:24:29;;;;;;;3.33;2.30;;;;;18.90;94160.00;;;;7397396;19;20647;-77
2023/08/18 05:27:11;;;;;;;3.60;2.63;;;;;18.90;94155.00;;;;7395538;19;20149;-77
2023/08/18 05:29:48;;;;;;;5.72;2.28;;;;;18.90;94163.00;;;;7398149;19;20135;-76
2023/08/18 05:32:18;;;;;;;2.97;2.25;;;;;18.70;94155.00;;;;7393886;19;20616;-76
2023/08/18 05:34:55;;;;;;;3.50;2.40;;;;;18.70;94158.00;;;;7396818;19;20628;-76
2023/08/18 05:37:30;;;;;;;4.60;2.10;;;;;18.80;94163.00;;;;7396439;19;20627;-76
2023/08/18 05:40:05;;;;;;;3.97;2.20;;;;;18.80;94157.00;;;;7395526;19;20133;-79
2023/08/18 05:42:41;;;;;;;3.63;2.15;;;;;18.80;94165.00;;;;7395790;19;20124;-77
2023/08/18 05:45:09;;;;;;;2.30;2.10;;;;;19.00;94162.00;;;;7397438;19;20137;-79
2023/08/18 05:47:49;;;;;;;3.17;1.88;;;;;19.10;94166.00;;;;7397377;19;20480;-78
2023/08/18 05:50:27;;;;;;;3.13;2.10;;;;;19.10;94163.00;;;;7395720;19;20170;-75
2023/08/18 05:52:54;;;;;;;4.38;2.30;;;;;19.30;94160.00;;;;7396243;19;20152;-77
2023/08/18 05:55:30;;;;;;;4.50;2.10;;;;;19.50;94163.00;;;;7397241;19;20144;-78
2023/08/18 05:58:04;;;;;;;4.10;2.28;;;;;19.50;94158.00;;;;7395959;19;20139;-76
2023/08/18 06:00:38;;;;;;;2.42;2.20;;;;;19.70;94162.00;;;;7397499;19;20153;-77
2023/08/18 06:03:19;;;;;;;3.38;2.20;;;;;19.80;94159.00;;;;7393899;19;20618;-75
2023/08/18 06:06:04;;;;;;;3.42;1.90;;;;;20.00;94164.00;;;;7394484;19;20133;-77
2023/08/18 06:08:39;;;;;;;4.72;2.70;;;;;20.10;94158.00;;;;7396124;19;20137;-76
2023/08/18 06:11:07;;;;;;;7.10;2.40;;;;;20.20;94166.00;;;;7394602;19;20133;-77
2023/08/18 06:13:42;;;;;;;2.35;2.15;;;;;20.30;94169.00;;;;7396276;19;20534;-78
2023/08/18 06:16:17;;;;;;;2.83;2.00;;;;;20.50;94171.00;;;;7394207;19;20140;-77
2023/08/18 06:18:45;;;;;;;3.08;1.90;;;;;20.60;94169.00;;;;7395695;19;20497;-77
2023/08/18 06:21:20;;;;;;;3.83;1.77;;;;;20.80;94172.00;;;;7393772;19;20480;-75
2023/08/18 06:23:48;;;;;;;2.03;1.80;;;;;20.80;94171.00;;;;7394732;19;20153;-74
2023/08/18 06:26:22;;;;;;;4.32;2.10;;;;;21.00;94177.00;;;;7403022;19;20124;-75
2023/08/18 06:28:50;;;;;;;3.90;1.85;;;;;21.10;94178.00;;;;7403390;19;20145;-75
2023/08/18 06:31:27;;;;;;;2.25;1.75;;;;;21.30;94170.00;;;;7401566;19;20537;-76
2023/08/18 06:33:55;;;;;;;2.10;1.88;;;;;21.40;94182.00;;;;7403962;19;20133;-77
2023/08/18 06:36:31;;;;;;;4.72;2.20;;;;;21.50;94180.00;;;;7402822;19;20596;-77
2023/08/18 06:38:59;;;;;;;6.53;2.00;;;;;21.60;94177.00;;;;7402607;19;20720;-78
2023/08/18 06:41:37;;;;;;;2.72;2.00;;;;;21.80;94176.00;;;;7403774;19;20132;-78
2023/08/18 06:44:06;;;;;;;2.50;1.92;;;;;21.90;94184.00;;;;7401024;19;20131;-76
2023/08/18 06:46:39;;;;;;;4.55;1.95;;;;;22.00;94172.00;;;;7401965;19;20239;-79
2023/08/18 06:49:13;;;;;;;2.20;1.70;;;;;22.10;94177.00;;;;7402262;19;20172;-77
2023/08/18 06:51:48;;;;;;;2.45;1.80;;;;;22.40;94178.00;;;;7398400;19;20212;-77
2023/08/18 06:54:16;;;;;;;2.10;1.90;;;;;22.60;94176.00;;;;7402269;19;20601;-76
2023/08/18 06:56:52;;;;;;;2.80;1.80;;;;;22.70;94182.00;;;;7402569;19;20620;-78
2023/08/18 06:59:20;;;;;;;4.07;2.00;;;;;22.90;94184.00;;;;7402596;19;20137;-79
2023/08/18 07:01:54;;;;;;;3.03;1.92;;;;;23.00;94184.00;;;;7401702;19;20217;-80
2023/08/18 07:04:30;;;;;;;3.53;1.70;;;;;23.10;94187.00;;;;7397856;19;20536;-78
2023/08/18 07:07:05;;;;;;;4.65;1.80;;;;;23.20;94184.00;;;;7400696;19;20594;-79
2023/08/18 07:09:33;;;;;;;2.05;1.70;;;;;23.30;94180.00;;;;7400981;19;20179;-79
2023/08/18 07:12:08;;;;;;;3.88;1.85;;;;;23.50;94193.00;;;;7399663;19;20132;-79
2023/08/18 07:14:36;;;;;;;3.15;1.95;;;;;23.60;94190.00;;;;7400404;19;20156;-78
2023/08/18 07:17:11;;;;;;;2.70;1.77;;;;;23.70;94196.00;;;;7400728;19;20144;-80
2023/08/18 07:19:39;;;;;;;2.92;1.90;;;;;23.80;94195.00;;;;7402477;19;20133;-79
2023/08/18 07:22:13;;;;;;;2.55;1.75;;;;;23.90;94198.00;;;;7401865;19;20150;-79
2023/08/18 07:24:41;;;;;;;3.67;1.98;;;;;24.10;94206.00;;;;7403160;19;20129;-79
2023/08/18 07:27:16;;;;;;;4.05;1.83;;;;;24.30;94201.00;;;;7399083;19;20148;-77
2023/08/18 07:29:45;;;;;;;3.38;1.75;;;;;24.30;94198.00;;;;7400078;19;20141;-77
2023/08/18 07:32:19;;;;;;;3.60;1.80;;;;;24.40;94200.00;;;;7396829;19;20133;-79
2023/08/18 07:34:47;;;;;;;2.42;1.70;;;;;24.50;94205.00;;;;7399708;19;20132;-78
2023/08/18 07:37:23;;;;;;;3.20;1.75;;;;;24.70;94215.00;;;;7400299;19;20147;-76
2023/08/18 07:40:19;;;;;;;2.88;1.88;;;;;24.70;94217.00;;;;7399882;19;20149;-78
2023/08/18 07:42:53;;;;;;;3.83;1.92;;;;;24.70;94216.00;;;;7400266;19;20169;-81
2023/08/18 07:45:21;;;;;;;3.60;2.08;;;;;24.60;94217.00;;;;7400154;19;20177;-76
2023/08/18 07:47:57;;;;;;;4.35;2.20;;;;;24.90;94225.00;;;;7400331;19;20557;-78
2023/08/18 07:50:25;;;;;;;2.88;2.05;;;;;24.90;94227.00;;;;7399550;19;20136;-79
2023/08/18 07:52:59;;;;;;;2.88;2.00;;;;;24.90;94223.00;;;;7398737;19;20151;-79
2023/08/18 07:55:28;;;;;;;5.50;2.60;;;;;25.20;94229.00;;;;7399816;19;20298;-78
2023/08/18 07:58:03;;;;;;;3.50;2.00;;;;;25.20;94242.00;;;;7399033;19;20222;-78
2023/08/18 08:00:37;;;;;;;2.47;1.83;;;;;25.20;94233.00;;;;7398595;19;20485;-73
2023/08/18 08:03:11;;;;;;;5.72;2.10;;;;;25.30;94231.00;;;;7399798;19;20193;-76
2023/08/18 08:05:54;;;;;;;3.92;2.13;;;;;25.40;94236.00;;;;7400039;19;20148;-73
2023/08/18 08:08:22;;;;;;;2.47;2.28;;;;;25.40;94233.00;;;;7399564;19;20550;-73
2023/08/18 08:10:58;;;;;;;7.88;2.15;;;;;25.60;94234.00;;;;7398305;19;20148;-74
2023/08/18 08:13:27;;;;;;;4.72;2.30;;;;;25.50;94230.00;;;;7400870;19;20212;-73
2023/08/18 08:16:01;;;;;;;4.82;2.08;;;;;25.70;94223.00;;;;7396463;19;20180;-75
2023/08/18 08:18:37;;;;;;;2.90;2.17;;;;;25.70;94231.00;;;;7398235;19;20173;-72
2023/08/18 08:21:06;;;;;;;6.18;2.30;;;;;25.80;94237.00;;;;7399208;19;20140;-73
2023/08/18 08:23:43;;;;;;;3.70;2.60;;;;;25.90;94235.00;;;;7396753;19;20156;-74
2023/08/18 08:26:18;;;;;;;5.63;2.30;;;;;25.90;94228.00;;;;7397240;19;20144;-73
2023/08/18 08:28:46;;;;;;;3.88;2.33;;;;;25.90;94240.00;;;;7397959;19;20145;-73
2023/08/18 08:31:26;;;;;;;5.10;2.60;;;;;26.10;94235.00;;;;7394299;19;20144;-74
2023/08/18 08:33:54;;;;;;;5.35;2.20;;;;;26.30;94234.00;;;;7398968;19;20150;-73
2023/08/18 08:36:32;;;;;;;5.22;2.38;;;;;26.30;94239.00;;;;7398918;19;20125;-74
2023/08/18 08:39:02;;;;;;;4.75;2.20;;;;;26.40;94237.00;;;;7396602;19;20918;-76
2023/08/18 08:41:37;;;;;;;4.45;2.28;;;;;26.50;94238.00;;;;7398830;19;20229;-73
2023/08/18 08:44:13;;;;;;;5.82;2.22;;;;;26.50;94236.00;;;;7398951;19;20128;-74
2023/08/18 08:46:48;;;;;;;4.43;2.60;;;;;26.40;94240.00;;;;7395570;19;20144;-75
2023/08/18 08:49:16;;;;;;;3.15;2.45;;;;;26.40;94240.00;;;;7395897;19;20156;-74
2023/08/18 08:51:58;;;;;;;3.88;2.47;;;;;26.40;94239.00;;;;7397588;19;20220;-75
2023/08/18 08:54:28;;;;;;;4.15;2.20;;;;;26.70;94240.00;;;;7396920;19;20292;-75
2023/08/18 08:57:08;;;;;;;3.72;2.38;;;;;26.60;94243.00;;;;7396327;19;20604;-73
2023/08/18 08:59:37;;;;;;;4.43;2.60;;;;;26.70;94245.00;;;;7397226;19;20147;-76
2023/08/18 09:02:11;;;;;;;4.18;2.38;;;;;26.90;94247.00;;;;7397207;19;20599;-75
2023/08/18 09:04:46;;;;;;;8.38;2.33;;;;;27.10;94245.00;;;;7396151;19;20677;-75
2023/08/18 09:07:20;;;;;;;4.47;2.30;;;;;27.10;94248.00;;;;7396288;19;20136;-74
2023/08/18 09:09:48;;;;;;;5.75;2.90;;;;;27.00;94252.00;;;;7396813;19;20596;-74
2023/08/18 09:12:17;;;;;;;5.47;2.92;;;;;27.10;94255.00;;;;7395857;19;20209;-74
2023/08/18 09:14:54;;;;;;;6.07;2.72;;;;;27.20;94258.00;;;;7398189;19;20128;-76
2023/08/18 09:17:24;;;;;;;4.57;2.90;;;;;27.10;94251.00;;;;7396778;19;20604;-73
2023/08/18 09:20:00;;;;;;;3.20;2.70;;;;;27.00;94252.00;;;;7395977;19;20614;-74
2023/08/18 09:22:28;;;;;;;4.93;2.35;;;;;27.10;94257.00;;;;7397328;19;20169;-75
2023/08/18 09:25:02;;;;;;;5.22;2.65;;;;;27.20;94257.00;;;;7397067;19;20199;-73
2023/08/18 09:27:36;;;;;;;5.35;2.60;;;;;27.50;94252.00;;;;7395732;19;20611;-74
2023/08/18 09:30:11;;;;;;;6.00;2.30;;;;;27.70;94251.00;;;;7398767;19;20137;-75
2023/08/18 09:32:46;;;;;;;4.32;2.40;;;;;27.70;94244.00;;;;7394830;19;20125;-74
2023/08/18 09:35:20;;;;;;;3.40;2.70;;;;;27.80;94248.00;;;;7395998;19;20148;-74
2023/08/18 09:37:56;;;;;;;4.40;2.42;;;;;27.90;94248.00;;;;7397217;19;20140;-76
2023/08/18 09:40:31;;;;;;;5.00;2.50;;;;;27.90;94242.00;;;;7399284;19;20216;-72
2023/08/18 09:43:06;;;;;;;3.53;2.95;;;;;27.80;94243.00;;;;7396301;19;20245;-75
2023/08/18 09:45:40;;;;;;;2.72;2.20;;;;;27.90;94249.00;;;;7396643;19;20778;-75
2023/08/18 09:48:15;;;;;;;3.40;2.10;;;;;28.10;94237.00;;;;7397255;19;20141;-75
2023/08/18 09:50:47;;;;;;;5.63;2.42;;;;;27.90;94232.00;;;;7395701;19;20152;-74
2023/08/18 09:53:26;;;;;;;5.18;2.70;;;;;28.10;94232.00;;;;7394372;19;20160;-75
2023/08/18 09:56:08;;;;;;;2.88;2.30;;;;;28.40;94236.00;;;;7398540;19;20219;-74
2023/08/18 09:59:02;;;;;;;6.40;2.35;;;;;28.40;94241.00;;;;7399108;19;20141;-75
2023/08/18 10:01:37;;;;;;;2.38;2.13;;;;;28.30;94244.00;;;;7403338;19;20136;-75
2023/08/18 10:04:19;;;;;;;7.40;2.58;;;;;28.60;94241.00;;;;7402997;19;20589;-73
2023/08/18 10:06:56;;;;;;;5.07;2.20;;;;;28.60;94246.00;;;;7403827;19;20140;-74
2023/08/18 10:09:33;;;;;;;5.28;2.50;;;;;28.60;94240.00;;;;7405121;19;20160;-74
2023/08/18 10:12:02;;;;;;;3.45;2.10;;;;;28.80;94242.00;;;;7404519;19;20141;-76
2023/08/18 10:14:38;;;;;;;3.28;2.15;;;;;28.90;94244.00;;;;7405060;19;20603;-74
2023/08/18 10:17:12;;;;;;;5.43;2.70;;;;;28.90;94235.00;;;;7401669;19;20591;-75
2023/08/18 10:19:52;;;;;;;4.90;2.53;;;;;28.90;94246.00;;;;7402355;19;20190;-76
2023/08/18 10:22:30;;;;;;;5.07;2.30;;;;;29.30;94249.00;;;;7403457;19;20144;-75
2023/08/18 10:24:58;;;;;;;5.38;2.70;;;;;29.50;94239.00;;;;7402100;19;20137;-75
2023/08/18 10:27:38;;;;;;;4.43;2.50;;;;;29.60;94249.00;;;;7402299;19;20167;-76
2023/08/18 10:30:08;;;;;;;6.55;2.20;;;;;29.40;94238.00;;;;7402787;19;20201;-76
2023/08/18 10:32:42;;;;;;;6.47;1.92;;;;;29.70;94237.00;;;;7399117;19;20148;-75
2023/08/18 10:35:25;;;;;;;4.15;2.15;;;;;29.80;94227.00;;;;7401579;19;20129;-75
2023/08/18 10:38:03;;;;;;;7.07;2.60;;;;;29.80;94232.00;;;;7400976;19;20552;-75
2023/08/18 10:40:38;;;;;;;6.72;2.67;;;;;29.70;94234.00;;;;7400642;19;20144;-75
2023/08/18 10:43:14;;;;;;;6.22;2.35;;;;;30.00;94238.00;;;;7403603;19;20187;-76
2023/08/18 10:45:57;;;;;;;5.97;2.38;;;;;30.20;94225.00;;;;7402769;19;20151;-75
2023/08/18 10:48:33;;;;;;;6.70;2.63;;;;;30.10;94228.00;;;;7400806;19;20195;-75
2023/08/18 10:51:07;;;;;;;6.05;2.50;;;;;30.40;94226.00;;;;7399686;19;20152;-75
2023/08/18 10:53:42;;;;;;;5.90;2.63;;;;;30.60;94223.00;;;;7399990;19;20223;-75
2023/08/18 10:56:09;;;;;;;5.07;2.28;;;;;30.60;94220.00;;;;7401519;19;20599;-75
2023/08/18 10:58:44;;;;;;;6.38;2.35;;;;;30.50;94220.00;;;;7401919;19;20135;-75
2023/08/18 11:01:12;;;;;;;5.10;2.40;;;;;30.40;94224.00;;;;7402010;19;20460;-75
2023/08/18 11:03:53;;;;;;;5.40;2.58;;;;;30.70;94225.00;;;;7398113;19;20182;-75
2023/08/18 11:06:27;;;;;;;4.70;2.85;;;;;31.00;94218.00;;;;7401455;19;20615;-73
2023/08/18 11:09:04;;;;;;;8.23;2.85;;;;;30.70;94217.00;;;;7402012;19;20162;-75
2023/08/18 11:11:33;;;;;;;3.40;2.38;;;;;30.50;94213.00;;;;7398673;19;20148;-74
2023/08/18 11:14:07;;;;;;;6.38;2.85;;;;;30.40;94215.00;;;;7401552;19;20223;-74
2023/08/18 11:16:42;;;;;;;4.20;2.38;;;;;30.90;94201.00;;;;7402260;19;20480;-75
2023/08/18 11:19:16;;;;;;;9.20;3.00;;;;;30.80;94210.00;;;;7400965;19;20139;-74
2023/08/18 11:21:44;;;;;;;6.90;2.58;;;;;30.90;94202.00;;;;7401010;19;20607;-74
2023/08/18 11:24:19;;;;;;;4.78;2.60;;;;;31.20;94208.00;;;;7401480;19;20135;-75
2023/08/18 11:26:48;;;;;;;6.03;2.53;;;;;31.60;94208.00;;;;7401017;19;20600;-75
2023/08/18 11:29:22;;;;;;;5.95;2.60;;;;;31.60;94213.00;;;;7400965;19;20148;-74
2023/08/18 11:31:53;;;;;;;10.48;2.95;;;;;31.90;94206.00;;;;7401532;19;20157;-75
2023/08/18 11:34:28;;;;;;;8.20;2.88;;;;;31.70;94209.00;;;;7399358;19;20174;-76
2023/08/18 11:37:01;;;;;;;6.82;2.53;;;;;32.00;94208.00;;;;7401034;19;20137;-76
2023/08/18 11:39:36;;;;;;;9.75;2.50;;;;;32.20;94197.00;;;;7400907;19;20128;-78
2023/08/18 11:42:04;;;;;;;5.15;2.53;;;;;32.20;94212.00;;;;7399626;19;20256;-76
2023/08/18 11:44:39;;;;;;;9.10;2.70;;;;;32.60;94200.00;;;;7400086;19;20441;-76
2023/08/18 11:47:11;;;;;;;5.65;2.17;;;;;32.20;94206.00;;;;7401450;19;20153;-76
2023/08/18 11:49:46;;;;;;;7.05;2.65;;;;;31.60;94205.00;;;;7399983;19;20139;-76
2023/08/18 11:52:21;;;;;;;6.90;2.45;;;;;32.00;94206.00;;;;7397782;19;20146;-77
2023/08/18 11:54:58;;;;;;;5.70;2.20;;;;;31.90;94206.00;;;;7401028;19;20144;-76
2023/08/18 11:57:26;;;;;;;6.50;2.60;;;;;32.00;94204.00;;;;7399518;19;20165;-75
2023/08/18 12:00:10;;;;;;;9.93;2.85;;;;;32.00;94210.00;;;;7398516;19;20147;-76
2023/08/18 12:02:46;;;;;;;7.90;2.78;;;;;32.50;94200.00;;;;7399559;19;20228;-76
2023/08/18 12:05:28;;;;;;;6.20;2.13;;;;;33.10;94198.00;;;;7398399;19;20191;-74
2023/08/18 12:07:57;;;;;;;4.68;2.38;;;;;33.70;94199.00;;;;7399276;19;20135;-77
2023/08/18 12:10:31;;;;;;;4.70;2.55;;;;;33.20;94201.00;;;;7401262;19;20627;-78
2023/08/18 12:13:05;;;;;;;3.00;2.25;;;;;33.50;94195.00;;;;7399538;19;20147;-75
2023/08/18 12:15:40;;;;;;;4.88;2.65;;;;;33.80;94193.00;;;;7398321;19;20207;-76
2023/08/18 12:18:09;;;;;;;8.13;2.65;;;;;33.70;94203.00;;;;7398952;19;20140;-79
2023/08/18 12:20:46;;;;;;;4.55;2.58;;;;;33.70;94197.00;;;;7401742;19;20128;-77
2023/08/18 12:23:14;;;;;;;6.28;2.58;;;;;33.90;94201.00;;;;7398893;19;20132;-77
2023/08/18 12:25:48;;;;;;;7.30;2.50;;;;;33.30;94201.00;;;;7398431;19;20265;-77
2023/08/18 12:28:17;;;;;;;4.32;2.03;;;;;33.40;94200.00;;;;7399560;19;20136;-76
2023/08/18 12:30:51;;;;;;;8.38;2.30;;;;;33.50;94201.00;;;;7398399;19;20563;-77
2023/08/18 12:33:25;;;;;;;4.25;2.30;;;;;33.60;94196.00;;;;7397386;19;20560;-76
2023/08/18 12:36:00;;;;;;;7.32;2.42;;;;;33.60;94200.00;;;;7399340;19;20162;-77
2023/08/18 12:38:34;;;;;;;7.28;2.78;;;;;33.80;94200.00;;;;7399267;19;20143;-77
2023/08/18 12:41:09;;;;;;;5.50;2.20;;;;;33.60;94200.00;;;;7399837;19;20763;-76
2023/08/18 12:43:44;;;;;;;7.47;2.53;;;;;33.90;94196.00;;;;7398967;19;20618;-77
2023/08/18 12:46:11;;;;;;;4.97;2.33;;;;;34.20;94198.00;;;;7398905;19;20484;-76
2023/08/18 12:52:24;;;;;;;11.52;2.70;;;;;33.80;94200.00;;;;7398448;19;20132;-76